createdAt,value
2017-09-05T00:01:29.232Z,11.00
2017-09-05T00:03:57.503Z,11.00
2017-09-05T00:06:25.890Z,10.90
2017-09-05T00:08:56.672Z,10.90
2017-09-05T00:11:30.531Z,10.90
2017-09-05T00:13:59.284Z,10.80
2017-09-05T00:16:32.563Z,10.80
2017-09-05T00:19:00.853Z,10.70
2017-09-05T00:21:45.748Z,10.60
2017-09-05T00:24:14.024Z,10.50
2017-09-05T00:26:42.300Z,10.50
2017-09-05T00:29:11.352Z,10.70
2017-09-05T00:31:40.549Z,10.60
2017-09-05T00:34:08.863Z,10.70
2017-09-05T00:36:37.111Z,10.60
2017-09-05T00:39:05.388Z,10.60
2017-09-05T00:41:33.672Z,10.70
2017-09-05T00:44:01.940Z,10.60
2017-09-05T00:46:30.255Z,10.50
2017-09-05T00:48:58.525Z,10.50
2017-09-05T00:51:26.803Z,10.50
2017-09-05T00:53:55.100Z,10.40
2017-09-05T00:56:23.375Z,10.30
2017-09-05T00:58:51.703Z,10.40
2017-09-05T01:01:19.963Z,10.40
2017-09-05T01:03:48.251Z,10.30
2017-09-05T01:06:16.569Z,10.30
2017-09-05T01:08:44.848Z,10.20
2017-09-05T01:11:13.183Z,10.20
2017-09-05T01:13:41.470Z,10.30
2017-09-05T01:16:09.755Z,10.20
2017-09-05T01:18:38.051Z,10.20
2017-09-05T01:21:06.315Z,10.10
2017-09-05T01:23:34.622Z,10.00
2017-09-05T01:26:02.880Z,9.90
2017-09-05T01:28:31.143Z,9.90
2017-09-05T01:30:59.421Z,9.80
2017-09-05T01:33:27.687Z,9.90
2017-09-05T01:35:55.978Z,9.90
2017-09-05T01:38:24.264Z,9.90
2017-09-05T01:40:52.531Z,10.00
2017-09-05T01:43:20.811Z,10.00
2017-09-05T01:45:49.084Z,10.10
2017-09-05T01:48:17.385Z,10.00
2017-09-05T01:50:45.677Z,10.00
2017-09-05T01:53:13.967Z,10.00
2017-09-05T01:55:42.249Z,10.00
2017-09-05T01:58:10.496Z,9.90
2017-09-05T02:00:38.805Z,9.90
2017-09-05T02:03:07.149Z,9.90
2017-09-05T02:05:35.414Z,9.80
2017-09-05T02:08:03.696Z,9.80
2017-09-05T02:10:31.971Z,9.70
2017-09-05T02:13:00.264Z,9.60
2017-09-05T02:15:28.532Z,9.60
2017-09-05T02:17:56.795Z,9.70
2017-09-05T02:20:25.067Z,9.80
2017-09-05T02:22:53.332Z,9.70
2017-09-05T02:25:21.643Z,9.70
2017-09-05T02:27:49.901Z,9.70
2017-09-05T02:30:18.167Z,9.60
2017-09-05T02:32:46.452Z,9.60
2017-09-05T02:35:14.719Z,9.60
2017-09-05T02:37:43.038Z,9.60
2017-09-05T02:40:11.288Z,9.50
2017-09-05T02:42:39.572Z,9.50
2017-09-05T02:45:07.849Z,9.40
2017-09-05T02:47:36.113Z,9.40
2017-09-05T02:50:04.395Z,9.40
2017-09-05T02:52:32.673Z,9.30
2017-09-05T02:55:00.944Z,9.20
2017-09-05T02:57:29.981Z,9.30
2017-09-05T02:59:58.389Z,9.20
2017-09-05T03:02:26.658Z,9.20
2017-09-05T03:04:54.913Z,9.20
2017-09-05T03:07:23.200Z,9.10
2017-09-05T03:09:51.476Z,9.10
2017-09-05T03:12:19.777Z,9.10
2017-09-05T03:14:48.036Z,9.10
2017-09-05T03:17:16.304Z,9.20
2017-09-05T03:19:44.596Z,9.20
2017-09-05T03:22:12.875Z,9.30
2017-09-05T03:24:41.180Z,9.30
2017-09-05T03:27:09.464Z,9.30
2017-09-05T03:29:38.487Z,9.10
2017-09-05T03:32:06.779Z,9.00
2017-09-05T03:34:35.039Z,9.00
2017-09-05T03:37:03.343Z,9.00
2017-09-05T03:39:31.611Z,9.00
2017-09-05T03:41:59.883Z,8.90
2017-09-05T03:44:28.175Z,8.90
2017-09-05T03:46:56.442Z,8.80
2017-09-05T03:49:24.749Z,8.80
2017-09-05T03:51:53.007Z,8.80
2017-09-05T03:54:21.275Z,8.80
2017-09-05T03:56:49.544Z,8.90
2017-09-05T03:59:17.800Z,8.90
2017-09-05T04:01:46.217Z,8.90
2017-09-05T04:04:14.488Z,8.90
2017-09-05T04:06:43.511Z,8.80
2017-09-05T04:09:11.823Z,8.80
2017-09-05T04:11:40.068Z,8.80
2017-09-05T04:14:08.380Z,8.70
2017-09-05T04:16:36.635Z,8.80
2017-09-05T04:19:04.891Z,8.90
2017-09-05T04:21:33.171Z,8.80
2017-09-05T04:24:01.433Z,8.80
2017-09-05T04:26:29.712Z,8.70
2017-09-05T04:28:57.975Z,8.70
2017-09-05T04:31:26.297Z,8.60
2017-09-05T04:33:54.539Z,8.60
2017-09-05T04:36:22.820Z,8.60
2017-09-05T04:38:51.092Z,8.60
2017-09-05T04:41:19.371Z,8.50
2017-09-05T04:43:47.784Z,8.50
2017-09-05T04:46:16.051Z,8.50
2017-09-05T04:48:44.313Z,8.50
2017-09-05T04:51:12.602Z,8.60
2017-09-05T04:53:40.863Z,8.60
2017-09-05T04:56:09.948Z,8.60
2017-09-05T04:58:38.216Z,8.50
2017-09-05T05:01:06.475Z,8.50
2017-09-05T05:03:34.764Z,8.50
2017-09-05T05:06:03.030Z,8.50
2017-09-05T05:08:31.615Z,8.60
2017-09-05T05:10:59.875Z,8.70
2017-09-05T05:13:28.148Z,8.70
2017-09-05T05:15:56.427Z,8.70
2017-09-05T05:18:24.706Z,8.70
2017-09-05T05:20:53.009Z,8.80
2017-09-05T05:23:21.265Z,8.80
2017-09-05T05:25:49.561Z,8.80
2017-09-05T05:28:17.820Z,8.90
2017-09-05T05:30:46.084Z,8.90
2017-09-05T05:33:15.134Z,9.00
2017-09-05T05:35:43.402Z,9.00
2017-09-05T05:38:11.728Z,9.30
2017-09-05T05:40:40.000Z,9.30
2017-09-05T05:43:08.276Z,9.40
2017-09-05T05:45:36.552Z,9.50
2017-09-05T05:48:04.828Z,9.70
2017-09-05T05:50:33.140Z,10.00
2017-09-05T05:53:01.407Z,10.30
2017-09-05T05:55:29.668Z,10.50
2017-09-05T05:57:57.980Z,10.70
2017-09-05T06:00:26.257Z,10.90
2017-09-05T06:02:54.568Z,11.10
2017-09-05T06:05:22.852Z,11.30
2017-09-05T06:07:51.123Z,11.50
2017-09-05T06:10:19.428Z,11.70
2017-09-05T06:12:47.700Z,11.80
2017-09-05T06:15:16.019Z,11.90
2017-09-05T06:17:44.313Z,11.90
2017-09-05T06:20:12.632Z,12.00
2017-09-05T06:22:40.929Z,12.10
2017-09-05T06:25:09.204Z,12.20
2017-09-05T06:27:37.503Z,12.30
2017-09-05T06:30:05.789Z,12.30
2017-09-05T06:32:34.112Z,12.40
2017-09-05T06:35:02.394Z,12.40
2017-09-05T06:37:30.664Z,12.40
2017-09-05T06:39:58.963Z,12.50
2017-09-05T06:42:27.220Z,12.60
2017-09-05T06:44:55.533Z,12.70
2017-09-05T06:47:23.807Z,12.70
2017-09-05T06:49:52.081Z,12.70
2017-09-05T06:52:20.363Z,12.80
2017-09-05T06:54:48.639Z,12.80
2017-09-05T06:57:16.920Z,13.00
2017-09-05T06:59:45.197Z,13.10
2017-09-05T07:02:13.667Z,13.10
2017-09-05T07:04:41.932Z,13.20
2017-09-05T07:07:10.261Z,13.30
2017-09-05T07:09:38.552Z,13.40
2017-09-05T07:12:06.827Z,13.40
2017-09-05T07:14:35.139Z,13.40
2017-09-05T07:17:03.415Z,13.50
2017-09-05T07:19:31.696Z,13.60
2017-09-05T07:21:59.979Z,13.70
2017-09-05T07:24:28.244Z,13.80
2017-09-05T07:26:56.559Z,13.90
2017-09-05T07:29:24.843Z,14.10
2017-09-05T07:31:53.124Z,14.20
2017-09-05T07:34:21.417Z,14.30
2017-09-05T07:36:50.035Z,14.40
2017-09-05T07:39:18.341Z,14.50
2017-09-05T07:41:46.655Z,14.60
2017-09-05T07:44:14.928Z,14.70
2017-09-05T07:46:43.204Z,14.80
2017-09-05T07:49:11.516Z,14.80
2017-09-05T07:51:39.783Z,14.90
2017-09-05T07:54:08.080Z,15.10
2017-09-05T07:56:36.343Z,15.20
2017-09-05T07:59:04.629Z,15.20
2017-09-05T08:01:32.900Z,15.40
2017-09-05T08:04:01.219Z,15.50
2017-09-05T08:06:29.500Z,15.60
2017-09-05T08:08:57.773Z,15.70
2017-09-05T08:11:26.072Z,15.60
2017-09-05T08:13:54.345Z,15.80
2017-09-05T08:16:22.616Z,15.90
2017-09-05T08:18:51.663Z,16.00
2017-09-05T08:21:19.935Z,15.90
2017-09-05T08:23:48.246Z,15.90
2017-09-05T08:26:16.508Z,16.10
2017-09-05T08:28:44.785Z,16.30
2017-09-05T08:31:13.074Z,16.30
2017-09-05T08:33:41.360Z,16.50
2017-09-05T08:36:09.684Z,16.60
2017-09-05T08:38:37.960Z,16.70
2017-09-05T08:41:06.240Z,16.80
2017-09-05T08:43:34.620Z,16.80
2017-09-05T08:46:02.896Z,16.90
2017-09-05T08:48:31.203Z,17.10
2017-09-05T08:50:59.480Z,17.20
2017-09-05T08:53:27.755Z,17.30
2017-09-05T08:55:56.051Z,17.40
2017-09-05T08:58:24.338Z,17.40
2017-09-05T09:00:52.673Z,17.50
2017-09-05T09:03:20.950Z,17.50
2017-09-05T09:05:49.236Z,17.50
2017-09-05T09:08:17.524Z,17.60
2017-09-05T09:10:45.845Z,17.70
2017-09-05T09:13:14.192Z,17.90
2017-09-05T09:15:42.540Z,18.20
2017-09-05T09:18:10.831Z,18.20
2017-09-05T09:20:39.168Z,18.30
2017-09-05T09:23:07.444Z,18.40
2017-09-05T09:25:35.776Z,18.50
2017-09-05T09:28:04.103Z,18.50
2017-09-05T09:30:32.508Z,18.50
2017-09-05T09:33:00.792Z,18.70
2017-09-05T09:35:29.088Z,18.80
2017-09-05T09:37:57.376Z,18.80
2017-09-05T09:40:25.656Z,18.80
2017-09-05T09:42:53.965Z,19.00
2017-09-05T09:45:22.239Z,19.10
2017-09-05T09:47:50.504Z,19.10
2017-09-05T09:50:18.813Z,19.10
2017-09-05T09:52:47.069Z,19.20
2017-09-05T09:55:15.352Z,19.00
2017-09-05T09:57:43.653Z,19.00
2017-09-05T10:00:11.952Z,19.00
2017-09-05T10:02:40.246Z,19.20
2017-09-05T10:05:08.580Z,19.40
2017-09-05T10:07:36.863Z,19.50
2017-09-05T10:10:05.140Z,19.60
2017-09-05T10:12:33.448Z,19.70
2017-09-05T10:15:01.763Z,19.70
2017-09-05T10:17:30.058Z,19.70
2017-09-05T10:19:58.323Z,19.90
2017-09-05T10:22:26.668Z,19.80
2017-09-05T10:24:54.951Z,19.80
2017-09-05T10:27:23.993Z,19.80
2017-09-05T10:29:52.288Z,19.70
2017-09-05T10:32:20.564Z,19.90
2017-09-05T10:34:49.113Z,20.10
2017-09-05T10:37:17.388Z,20.10
2017-09-05T10:39:45.695Z,20.10
2017-09-05T10:42:13.990Z,20.00
2017-09-05T10:44:42.261Z,20.00
2017-09-05T10:47:10.559Z,20.00
2017-09-05T10:49:38.855Z,20.10
2017-09-05T10:52:07.116Z,20.20
2017-09-05T10:54:35.404Z,20.20
2017-09-05T10:57:03.671Z,20.10
2017-09-05T10:59:31.991Z,20.10
2017-09-05T11:02:00.284Z,20.10
2017-09-05T11:04:28.562Z,20.20
2017-09-05T11:06:56.884Z,20.30
2017-09-05T11:09:25.152Z,20.30
2017-09-05T11:11:53.469Z,20.30
2017-09-05T11:14:21.752Z,20.20
2017-09-05T11:16:50.016Z,20.20
2017-09-05T11:19:18.307Z,20.30
2017-09-05T11:21:46.907Z,20.30
2017-09-05T11:24:15.299Z,20.40
2017-09-05T11:26:43.572Z,20.40
2017-09-05T11:29:11.855Z,20.20
2017-09-05T11:31:40.148Z,20.20
2017-09-05T11:34:08.436Z,20.20
2017-09-05T11:36:36.747Z,20.30
2017-09-05T11:39:05.024Z,20.50
2017-09-05T11:41:33.291Z,20.50
2017-09-05T11:44:01.587Z,20.80
2017-09-05T11:46:29.884Z,20.90
2017-09-05T11:48:58.160Z,20.90
2017-09-05T11:51:27.236Z,20.90
2017-09-05T11:53:55.512Z,20.90
2017-09-05T11:56:23.792Z,20.80
2017-09-05T11:58:52.079Z,21.10
2017-09-05T12:01:20.352Z,21.40
2017-09-05T12:03:48.857Z,21.60
2017-09-05T12:06:17.155Z,21.50
2017-09-05T12:08:45.461Z,21.60
2017-09-05T12:11:13.776Z,21.60
2017-09-05T12:13:42.043Z,21.70
2017-09-05T12:16:10.352Z,21.90
2017-09-05T12:18:38.718Z,21.80
2017-09-05T12:21:07.031Z,21.80
2017-09-05T12:23:35.304Z,22.00
2017-09-05T12:26:03.580Z,22.00
2017-09-05T12:28:31.863Z,22.10
2017-09-05T12:31:00.168Z,22.30
2017-09-05T12:33:28.496Z,22.50
2017-09-05T12:35:56.811Z,22.30
2017-09-05T12:38:25.081Z,22.40
2017-09-05T12:40:54.144Z,22.70
2017-09-05T12:43:22.434Z,22.60
2017-09-05T12:45:50.752Z,22.90
2017-09-05T12:48:19.032Z,23.20
2017-09-05T12:50:47.307Z,23.60
2017-09-05T12:53:15.608Z,23.60
2017-09-05T12:55:43.887Z,23.50
2017-09-05T12:58:12.201Z,23.40
2017-09-05T13:00:40.479Z,23.20
2017-09-05T13:03:08.778Z,22.50
2017-09-05T13:05:37.069Z,22.20
2017-09-05T13:08:05.346Z,22.50
2017-09-05T13:10:33.644Z,22.80
2017-09-05T13:13:01.920Z,23.10
2017-09-05T13:15:30.196Z,23.40
2017-09-05T13:17:58.504Z,23.50
2017-09-05T13:20:26.812Z,23.40
2017-09-05T13:22:55.128Z,23.20
2017-09-05T13:25:23.405Z,23.20
2017-09-05T13:27:51.695Z,23.20
2017-09-05T13:30:19.987Z,23.10
2017-09-05T13:32:48.273Z,23.10
2017-09-05T13:35:16.581Z,23.10
2017-09-05T13:37:44.863Z,23.10
2017-09-05T13:40:13.143Z,22.70
2017-09-05T13:42:41.444Z,22.60
2017-09-05T13:45:09.743Z,22.60
2017-09-05T13:47:38.053Z,22.60
2017-09-05T13:50:06.321Z,22.50
2017-09-05T13:52:35.375Z,22.40
2017-09-05T13:55:03.667Z,22.40
2017-09-05T13:57:32.706Z,22.80
2017-09-05T14:00:01.047Z,22.80
2017-09-05T14:02:29.320Z,23.10
2017-09-05T14:04:57.592Z,23.50
2017-09-05T14:07:25.879Z,24.00
2017-09-05T14:09:54.148Z,24.30
2017-09-05T14:12:22.480Z,24.50
2017-09-05T14:14:50.764Z,25.00
2017-09-05T14:17:19.049Z,24.90
2017-09-05T14:19:47.352Z,24.60
2017-09-05T14:22:15.630Z,24.70
2017-09-05T14:24:43.915Z,24.70
2017-09-05T14:27:12.193Z,24.30
2017-09-05T14:29:40.531Z,24.10
2017-09-05T14:32:08.820Z,24.50
2017-09-05T14:34:37.093Z,25.10
2017-09-05T14:37:05.379Z,25.80
2017-09-05T14:39:33.644Z,26.60
2017-09-05T14:42:01.931Z,26.90
2017-09-05T14:44:30.212Z,27.20
2017-09-05T14:46:58.527Z,27.50
2017-09-05T14:49:26.800Z,28.00
2017-09-05T14:51:55.245Z,28.30
2017-09-05T14:54:23.544Z,27.80
2017-09-05T14:56:51.807Z,27.20
2017-09-05T14:59:20.084Z,26.80
2017-09-05T15:01:48.362Z,26.30
2017-09-05T15:04:16.679Z,25.80
2017-09-05T15:06:44.963Z,25.40
2017-09-05T15:09:13.239Z,25.00
2017-09-05T15:11:41.555Z,24.60
2017-09-05T15:14:09.827Z,24.60
2017-09-05T15:16:38.299Z,24.50
2017-09-05T15:19:06.576Z,24.30
2017-09-05T15:21:35.624Z,24.00
2017-09-05T15:24:03.930Z,24.00
2017-09-05T15:26:32.200Z,24.00
2017-09-05T15:29:00.520Z,23.70
2017-09-05T15:31:28.800Z,23.60
2017-09-05T15:33:57.076Z,23.30
2017-09-05T15:36:25.387Z,23.20
2017-09-05T15:38:53.696Z,23.00
2017-09-05T15:41:21.969Z,22.90
2017-09-05T15:43:50.248Z,22.80
2017-09-05T15:46:18.545Z,22.70
2017-09-05T15:48:46.875Z,22.70
2017-09-05T15:51:15.163Z,22.60
2017-09-05T15:53:43.445Z,22.60
2017-09-05T15:56:11.739Z,22.60
2017-09-05T15:58:40.029Z,22.60
2017-09-05T16:01:08.323Z,22.50
2017-09-05T16:03:36.592Z,22.50
2017-09-05T16:06:05.062Z,22.40
2017-09-05T16:08:33.340Z,22.40
2017-09-05T16:11:01.692Z,22.40
2017-09-05T16:13:29.963Z,22.40
2017-09-05T16:15:58.240Z,22.30
2017-09-05T16:18:26.555Z,22.10
2017-09-05T16:20:54.837Z,22.10
2017-09-05T16:23:23.108Z,22.10
2017-09-05T16:25:51.460Z,22.10
2017-09-05T16:28:20.125Z,22.10
2017-09-05T16:30:48.421Z,22.10
2017-09-05T16:33:16.696Z,22.10
2017-09-05T16:35:45.044Z,22.10
2017-09-05T16:38:13.340Z,22.10
2017-09-05T16:40:41.616Z,22.20
2017-09-05T16:43:09.939Z,22.10
2017-09-05T16:45:38.224Z,22.10
2017-09-05T16:48:06.532Z,22.10
2017-09-05T16:50:34.800Z,22.00
2017-09-05T16:53:03.992Z,21.90
2017-09-05T16:55:32.288Z,21.80
2017-09-05T16:58:00.564Z,21.70
2017-09-05T17:00:28.886Z,21.60
2017-09-05T17:02:57.168Z,21.60
2017-09-05T17:05:25.460Z,21.60
2017-09-05T17:07:53.765Z,21.50
2017-09-05T17:10:22.052Z,21.50
2017-09-05T17:12:50.379Z,21.40
2017-09-05T17:15:18.697Z,21.20
2017-09-05T17:17:46.958Z,21.30
2017-09-05T17:20:15.255Z,21.20
2017-09-05T17:22:43.548Z,21.20
2017-09-05T17:25:11.884Z,21.20
2017-09-05T17:27:40.164Z,21.10
2017-09-05T17:30:08.436Z,21.10
2017-09-05T17:32:36.747Z,21.00
2017-09-05T17:35:05.017Z,20.90
2017-09-05T17:37:33.356Z,20.80
2017-09-05T17:40:01.631Z,20.70
2017-09-05T17:42:29.920Z,20.60
2017-09-05T17:44:58.225Z,20.50
2017-09-05T17:47:26.495Z,20.40
2017-09-05T17:49:54.875Z,20.40
2017-09-05T17:52:23.152Z,20.40
2017-09-05T17:54:52.184Z,20.20
2017-09-05T17:57:20.506Z,20.20
2017-09-05T17:59:48.772Z,20.10
2017-09-05T18:02:17.075Z,20.10
2017-09-05T18:04:45.356Z,20.00
2017-09-05T18:07:13.660Z,20.00
2017-09-05T18:09:41.938Z,20.00
2017-09-05T18:12:11.106Z,20.10
2017-09-05T18:14:39.381Z,20.00
2017-09-05T18:17:07.657Z,20.10
2017-09-05T18:19:35.947Z,20.00
2017-09-05T18:22:04.213Z,20.00
2017-09-05T18:24:32.696Z,20.00
2017-09-05T18:27:00.988Z,20.00
2017-09-05T18:29:29.299Z,19.90
2017-09-05T18:31:57.596Z,19.80
2017-09-05T18:34:25.867Z,19.70
2017-09-05T18:36:54.206Z,19.70
2017-09-05T18:39:23.235Z,19.70
2017-09-05T18:41:51.513Z,19.60
2017-09-05T18:44:19.817Z,19.70
2017-09-05T18:46:48.100Z,19.70
2017-09-05T18:49:16.397Z,19.60
2017-09-05T18:51:44.704Z,19.60
2017-09-05T18:54:13.035Z,19.50
2017-09-05T18:56:41.317Z,19.50
2017-09-05T18:59:09.603Z,19.40
2017-09-05T19:01:37.891Z,19.40
2017-09-05T19:04:06.163Z,19.30
2017-09-05T19:06:34.531Z,19.30
2017-09-05T19:09:02.783Z,19.30
2017-09-05T19:11:31.051Z,19.30
2017-09-05T19:13:59.345Z,19.30
2017-09-05T19:16:27.640Z,19.30
2017-09-05T19:18:55.950Z,19.30
2017-09-05T19:21:24.553Z,19.20
2017-09-05T19:23:52.876Z,19.20
2017-09-05T19:26:21.154Z,19.20
2017-09-05T19:28:49.471Z,19.30
2017-09-05T19:31:17.751Z,19.30
2017-09-05T19:33:46.032Z,19.30
2017-09-05T19:36:14.344Z,19.30
2017-09-05T19:38:42.613Z,19.20
2017-09-05T19:41:11.037Z,19.20
2017-09-05T19:43:40.085Z,19.10
2017-09-05T19:46:08.585Z,19.10
2017-09-05T19:48:36.870Z,19.10
2017-09-05T19:51:05.141Z,19.10
2017-09-05T19:53:33.556Z,19.10
2017-09-05T19:56:02.628Z,19.10
2017-09-05T19:58:30.887Z,19.00
2017-09-05T20:00:59.168Z,19.10
2017-09-05T20:03:27.460Z,19.10
2017-09-05T20:05:55.788Z,19.10
2017-09-05T20:08:24.063Z,19.10
2017-09-05T20:10:52.343Z,19.00
2017-09-05T20:13:20.651Z,19.10
2017-09-05T20:15:48.929Z,19.10
2017-09-05T20:18:17.216Z,19.10
2017-09-05T20:20:45.544Z,19.10
2017-09-05T20:23:13.837Z,19.10
2017-09-05T20:25:42.115Z,19.00
2017-09-05T20:28:10.437Z,19.00
2017-09-05T20:30:38.708Z,18.90
2017-09-05T20:33:07.007Z,18.90
2017-09-05T20:35:35.280Z,19.00
2017-09-05T20:38:03.568Z,18.90
2017-09-05T20:40:32.037Z,18.90
2017-09-05T20:43:00.319Z,18.80
2017-09-05T20:45:28.591Z,18.70
2017-09-05T20:47:56.896Z,18.60
2017-09-05T20:50:25.172Z,18.40
2017-09-05T20:52:53.476Z,18.40
2017-09-05T20:55:21.736Z,18.40
2017-09-05T20:57:50.007Z,18.40
2017-09-05T21:00:18.306Z,18.40
2017-09-05T21:02:46.580Z,18.30
2017-09-05T21:05:14.884Z,18.30
2017-09-05T21:07:43.147Z,18.20
2017-09-05T21:10:11.487Z,18.20
2017-09-05T21:12:39.768Z,18.10
2017-09-05T21:15:08.051Z,18.10
2017-09-05T21:17:36.337Z,18.20
2017-09-05T21:20:04.614Z,18.10
2017-09-05T21:22:32.941Z,18.00
2017-09-05T21:25:01.208Z,18.00
2017-09-05T21:27:29.505Z,18.00
2017-09-05T21:29:57.819Z,18.00
2017-09-05T21:32:26.095Z,18.00
2017-09-05T21:34:54.420Z,18.00
2017-09-05T21:37:22.696Z,18.00
2017-09-05T21:39:50.971Z,17.90
2017-09-05T21:42:19.257Z,17.90
2017-09-05T21:44:47.530Z,17.90
2017-09-05T21:47:16.213Z,17.90
2017-09-05T21:49:44.472Z,18.00
2017-09-05T21:52:12.747Z,18.00
2017-09-05T21:54:41.039Z,17.90
2017-09-05T21:57:09.330Z,17.90
2017-09-05T21:59:37.645Z,17.90
2017-09-05T22:02:05.929Z,17.90
2017-09-05T22:04:34.399Z,17.90
2017-09-05T22:07:02.758Z,17.90
2017-09-05T22:09:31.068Z,17.90
2017-09-05T22:11:59.378Z,17.90
2017-09-05T22:14:33.623Z,17.90
2017-09-05T22:17:01.896Z,18.00
2017-09-05T22:19:36.730Z,18.00
2017-09-05T22:22:05.008Z,18.00
2017-09-05T22:27:36.781Z,18.00
2017-09-05T22:30:05.104Z,18.00
2017-09-05T22:32:33.377Z,18.00
2017-09-05T22:35:01.655Z,18.00
2017-09-05T22:37:30.335Z,17.90
2017-09-05T22:39:58.597Z,17.90
2017-09-05T22:42:26.912Z,17.90
2017-09-05T22:44:55.183Z,17.90
2017-09-05T22:47:23.463Z,17.90
2017-09-05T22:49:51.757Z,18.00
2017-09-05T22:52:20.020Z,18.10
2017-09-05T22:54:48.504Z,18.10
2017-09-05T22:57:16.797Z,18.10
2017-09-05T22:59:45.067Z,17.90
2017-09-05T23:02:13.359Z,17.90
2017-09-05T23:04:41.648Z,17.80
2017-09-05T23:07:09.960Z,17.80
2017-09-05T23:09:38.228Z,17.70
2017-09-05T23:12:06.493Z,17.70
2017-09-05T23:14:34.783Z,17.70
2017-09-05T23:17:03.068Z,17.80
2017-09-05T23:19:31.377Z,17.90
2017-09-05T23:21:59.655Z,17.90
2017-09-05T23:24:27.920Z,17.90
2017-09-05T23:26:56.215Z,17.90
2017-09-05T23:29:24.500Z,18.00
2017-09-05T23:31:52.915Z,17.90
2017-09-05T23:34:21.184Z,17.90
2017-09-05T23:36:49.460Z,17.80
2017-09-05T23:39:17.779Z,17.80
2017-09-05T23:41:46.123Z,17.70
2017-09-05T23:44:14.453Z,17.70
2017-09-05T23:46:42.720Z,17.60
2017-09-05T23:49:11.004Z,17.60
2017-09-05T23:51:39.287Z,17.60
2017-09-05T23:54:07.564Z,17.70
2017-09-05T23:56:35.871Z,17.70
2017-09-05T23:59:04.146Z,17.80
